sensor_id;sensor_type;location;lat;lon;timestamp;temperature;humidity
18281;DHT22;9266;51.132;17.062;2023-08-06T00:00:59;15.10;99.90
18281;DHT22;9266;51.132;17.062;2023-08-06T00:03:26;15.20;99.90
18281;DHT22;9266;51.132;17.062;2023-08-06T00:05:53;15.20;99.90
18281;DHT22;9266;51.132;17.062;2023-08-06T00:08:20;15.10;99.90
18281;DHT22;9266;51.132;17.062;2023-08-06T00:10:47;15.10;99.90
18281;DHT22;9266;51.132;17.062;2023-08-06T00:13:15;15.10;99.90
18281;DHT22;9266;51.132;17.062;2023-08-06T00:15:43;15.00;99.90
18281;DHT22;9266;51.132;17.062;2023-08-06T00:18:10;15.10;99.90
18281;DHT22;9266;51.132;17.062;2023-08-06T00:20:39;15.00;99.90
18281;DHT22;9266;51.132;17.062;2023-08-06T00:23:07;15.10;99.90
18281;DHT22;9266;51.132;17.062;2023-08-06T00:25:33;15.10;99.90
18281;DHT22;9266;51.132;17.062;2023-08-06T00:28:00;15.00;99.90
18281;DHT22;9266;51.132;17.062;2023-08-06T00:30:27;15.10;99.90
18281;DHT22;9266;51.132;17.062;2023-08-06T00:32:56;15.10;99.90
18281;DHT22;9266;51.132;17.062;2023-08-06T00:35:23;15.00;99.90
18281;DHT22;9266;51.132;17.062;2023-08-06T00:37:50;15.10;99.90
18281;DHT22;9266;51.132;17.062;2023-08-06T00:40:20;15.00;99.90
18281;DHT22;9266;51.132;17.062;2023-08-06T00:42:48;15.00;99.90
18281;DHT22;9266;51.132;17.062;2023-08-06T00:45:15;15.00;99.90
18281;DHT22;9266;51.132;17.062;2023-08-06T00:47:42;15.00;99.90
18281;DHT22;9266;51.132;17.062;2023-08-06T00:50:10;15.00;99.90
18281;DHT22;9266;51.132;17.062;2023-08-06T00:52:37;15.00;99.90
18281;DHT22;9266;51.132;17.062;2023-08-06T00:55:05;15.00;99.90
18281;DHT22;9266;51.132;17.062;2023-08-06T00:57:32;14.90;99.90
18281;DHT22;9266;51.132;17.062;2023-08-06T00:59:59;14.90;99.90
18281;DHT22;9266;51.132;17.062;2023-08-06T01:02:26;15.00;99.90
18281;DHT22;9266;51.132;17.062;2023-08-06T01:04:53;14.90;99.90
18281;DHT22;9266;51.132;17.062;2023-08-06T01:07:33;14.90;99.90
18281;DHT22;9266;51.132;17.062;2023-08-06T01:10:19;14.90;99.90
18281;DHT22;9266;51.132;17.062;2023-08-06T01:12:51;14.90;99.90
18281;DHT22;9266;51.132;17.062;2023-08-06T01:15:23;14.90;99.90
18281;DHT22;9266;51.132;17.062;2023-08-06T01:17:52;14.90;99.90
18281;DHT22;9266;51.132;17.062;2023-08-06T01:20:19;14.90;99.90
18281;DHT22;9266;51.132;17.062;2023-08-06T01:22:48;14.90;99.90
18281;DHT22;9266;51.132;17.062;2023-08-06T01:25:15;14.90;99.90
18281;DHT22;9266;51.132;17.062;2023-08-06T01:27:46;14.90;99.90
18281;DHT22;9266;51.132;17.062;2023-08-06T01:30:17;14.90;99.90
18281;DHT22;9266;51.132;17.062;2023-08-06T01:32:49;14.90;99.90
18281;DHT22;9266;51.132;17.062;2023-08-06T01:35:19;14.90;99.90
18281;DHT22;9266;51.132;17.062;2023-08-06T01:37:48;14.90;99.90
18281;DHT22;9266;51.132;17.062;2023-08-06T01:40:15;14.90;99.90
18281;DHT22;9266;51.132;17.062;2023-08-06T01:42:42;14.90;99.90
18281;DHT22;9266;51.132;17.062;2023-08-06T01:45:10;14.90;99.90
18281;DHT22;9266;51.132;17.062;2023-08-06T01:47:37;14.90;99.90
18281;DHT22;9266;51.132;17.062;2023-08-06T01:50:04;14.90;99.90
18281;DHT22;9266;51.132;17.062;2023-08-06T01:52:31;14.90;99.90
18281;DHT22;9266;51.132;17.062;2023-08-06T01:54:59;14.90;99.90
18281;DHT22;9266;51.132;17.062;2023-08-06T01:57:26;14.90;99.90
18281;DHT22;9266;51.132;17.062;2023-08-06T01:59:53;14.90;99.90
18281;DHT22;9266;51.132;17.062;2023-08-06T02:02:20;14.90;99.90
18281;DHT22;9266;51.132;17.062;2023-08-06T02:04:47;14.90;99.90
18281;DHT22;9266;51.132;17.062;2023-08-06T02:07:14;14.90;99.90
18281;DHT22;9266;51.132;17.062;2023-08-06T02:09:41;14.90;99.90
18281;DHT22;9266;51.132;17.062;2023-08-06T02:12:09;14.90;99.90
18281;DHT22;9266;51.132;17.062;2023-08-06T02:14:36;14.90;99.90
18281;DHT22;9266;51.132;17.062;2023-08-06T02:17:03;14.90;99.90
18281;DHT22;9266;51.132;17.062;2023-08-06T02:19:30;14.90;99.90
18281;DHT22;9266;51.132;17.062;2023-08-06T02:21:57;14.90;99.90
18281;DHT22;9266;51.132;17.062;2023-08-06T02:24:24;14.90;99.90
18281;DHT22;9266;51.132;17.062;2023-08-06T02:26:51;14.80;99.90
18281;DHT22;9266;51.132;17.062;2023-08-06T02:29:22;14.70;99.90
18281;DHT22;9266;51.132;17.062;2023-08-06T02:31:49;14.80;99.90
18281;DHT22;9266;51.132;17.062;2023-08-06T02:34:16;14.80;99.90
18281;DHT22;9266;51.132;17.062;2023-08-06T02:36:43;14.80;99.90
18281;DHT22;9266;51.132;17.062;2023-08-06T02:39:10;14.70;99.90
18281;DHT22;9266;51.132;17.062;2023-08-06T02:41:37;14.70;99.90
18281;DHT22;9266;51.132;17.062;2023-08-06T02:44:04;14.70;99.90
18281;DHT22;9266;51.132;17.062;2023-08-06T02:46:32;14.70;99.90
18281;DHT22;9266;51.132;17.062;2023-08-06T02:48:59;14.70;99.90
18281;DHT22;9266;51.132;17.062;2023-08-06T02:51:26;14.70;99.90
18281;DHT22;9266;51.132;17.062;2023-08-06T02:53:53;14.60;99.90
18281;DHT22;9266;51.132;17.062;2023-08-06T02:56:20;14.70;99.90
18281;DHT22;9266;51.132;17.062;2023-08-06T02:58:47;14.60;99.90
18281;DHT22;9266;51.132;17.062;2023-08-06T03:01:14;14.70;99.90
18281;DHT22;9266;51.132;17.062;2023-08-06T03:03:42;14.60;99.90
18281;DHT22;9266;51.132;17.062;2023-08-06T03:06:09;14.60;99.90
18281;DHT22;9266;51.132;17.062;2023-08-06T03:08:36;14.60;99.90
18281;DHT22;9266;51.132;17.062;2023-08-06T03:11:03;14.60;99.90
18281;DHT22;9266;51.132;17.062;2023-08-06T03:13:30;14.60;99.90
18281;DHT22;9266;51.132;17.062;2023-08-06T03:15:59;14.60;99.90
18281;DHT22;9266;51.132;17.062;2023-08-06T03:18:26;14.60;99.90
18281;DHT22;9266;51.132;17.062;2023-08-06T03:20:55;14.60;99.90
18281;DHT22;9266;51.132;17.062;2023-08-06T03:23:22;14.60;99.90
18281;DHT22;9266;51.132;17.062;2023-08-06T03:25:49;14.60;99.90
18281;DHT22;9266;51.132;17.062;2023-08-06T03:28:16;14.60;99.90
18281;DHT22;9266;51.132;17.062;2023-08-06T03:30:43;14.50;99.90
18281;DHT22;9266;51.132;17.062;2023-08-06T03:33:10;14.50;99.90
18281;DHT22;9266;51.132;17.062;2023-08-06T03:35:37;14.50;99.90
18281;DHT22;9266;51.132;17.062;2023-08-06T03:38:05;14.50;99.90
18281;DHT22;9266;51.132;17.062;2023-08-06T03:40:35;14.50;99.90
18281;DHT22;9266;51.132;17.062;2023-08-06T03:43:02;14.50;99.90
18281;DHT22;9266;51.132;17.062;2023-08-06T03:45:29;14.50;99.90
18281;DHT22;9266;51.132;17.062;2023-08-06T03:47:56;14.50;99.90
18281;DHT22;9266;51.132;17.062;2023-08-06T03:50:23;14.50;99.90
18281;DHT22;9266;51.132;17.062;2023-08-06T03:52:50;14.50;99.90
18281;DHT22;9266;51.132;17.062;2023-08-06T03:55:18;14.50;99.90
18281;DHT22;9266;51.132;17.062;2023-08-06T03:57:45;14.40;99.90
18281;DHT22;9266;51.132;17.062;2023-08-06T04:00:12;14.40;99.90
18281;DHT22;9266;51.132;17.062;2023-08-06T04:02:39;14.40;99.90
18281;DHT22;9266;51.132;17.062;2023-08-06T04:05:07;14.50;99.90
18281;DHT22;9266;51.132;17.062;2023-08-06T04:07:34;14.50;99.90
18281;DHT22;9266;51.132;17.062;2023-08-06T04:10:02;14.50;99.90
18281;DHT22;9266;51.132;17.062;2023-08-06T04:12:31;14.40;99.90
18281;DHT22;9266;51.132;17.062;2023-08-06T04:14:59;14.40;99.90
18281;DHT22;9266;51.132;17.062;2023-08-06T04:17:26;14.40;99.90
18281;DHT22;9266;51.132;17.062;2023-08-06T04:19:54;14.40;99.90
18281;DHT22;9266;51.132;17.062;2023-08-06T04:22:23;14.40;99.90
18281;DHT22;9266;51.132;17.062;2023-08-06T04:24:51;14.40;99.90
18281;DHT22;9266;51.132;17.062;2023-08-06T04:27:19;14.40;99.90
18281;DHT22;9266;51.132;17.062;2023-08-06T04:29:48;14.40;99.90
18281;DHT22;9266;51.132;17.062;2023-08-06T04:32:15;14.30;99.90
18281;DHT22;9266;51.132;17.062;2023-08-06T04:34:42;14.40;99.90
18281;DHT22;9266;51.132;17.062;2023-08-06T04:37:10;14.30;99.90
18281;DHT22;9266;51.132;17.062;2023-08-06T04:39:36;14.30;99.90
18281;DHT22;9266;51.132;17.062;2023-08-06T04:42:04;14.40;99.90
18281;DHT22;9266;51.132;17.062;2023-08-06T04:44:31;14.40;99.90
18281;DHT22;9266;51.132;17.062;2023-08-06T04:47:00;14.30;99.90
18281;DHT22;9266;51.132;17.062;2023-08-06T04:49:26;14.30;99.90
18281;DHT22;9266;51.132;17.062;2023-08-06T04:51:53;14.40;99.90
18281;DHT22;9266;51.132;17.062;2023-08-06T04:54:20;14.40;99.90
18281;DHT22;9266;51.132;17.062;2023-08-06T04:56:47;14.40;99.90
18281;DHT22;9266;51.132;17.062;2023-08-06T04:59:14;14.30;99.90
18281;DHT22;9266;51.132;17.062;2023-08-06T05:01:41;14.30;99.90
18281;DHT22;9266;51.132;17.062;2023-08-06T05:04:09;14.30;99.90
18281;DHT22;9266;51.132;17.062;2023-08-06T05:06:36;14.30;99.90
18281;DHT22;9266;51.132;17.062;2023-08-06T05:09:04;14.30;99.90
18281;DHT22;9266;51.132;17.062;2023-08-06T05:11:31;14.30;99.90
18281;DHT22;9266;51.132;17.062;2023-08-06T05:13:58;14.40;99.90
18281;DHT22;9266;51.132;17.062;2023-08-06T05:16:25;14.30;99.90
18281;DHT22;9266;51.132;17.062;2023-08-06T05:18:52;14.30;99.90
18281;DHT22;9266;51.132;17.062;2023-08-06T05:21:23;14.30;99.90
18281;DHT22;9266;51.132;17.062;2023-08-06T05:23:50;14.30;99.90
18281;DHT22;9266;51.132;17.062;2023-08-06T05:26:17;14.30;99.90
18281;DHT22;9266;51.132;17.062;2023-08-06T05:28:45;14.40;99.90
18281;DHT22;9266;51.132;17.062;2023-08-06T05:31:12;14.30;99.90
18281;DHT22;9266;51.132;17.062;2023-08-06T05:33:39;14.30;99.90
18281;DHT22;9266;51.132;17.062;2023-08-06T05:36:06;14.30;99.90
18281;DHT22;9266;51.132;17.062;2023-08-06T05:38:34;14.40;99.90
18281;DHT22;9266;51.132;17.062;2023-08-06T05:41:01;14.40;99.90
18281;DHT22;9266;51.132;17.062;2023-08-06T05:43:28;14.40;99.90
18281;DHT22;9266;51.132;17.062;2023-08-06T05:45:56;14.30;99.90
18281;DHT22;9266;51.132;17.062;2023-08-06T05:48:23;14.40;99.90
18281;DHT22;9266;51.132;17.062;2023-08-06T05:50:51;14.40;99.90
18281;DHT22;9266;51.132;17.062;2023-08-06T05:53:18;14.30;99.90
18281;DHT22;9266;51.132;17.062;2023-08-06T05:55:47;14.30;99.90
18281;DHT22;9266;51.132;17.062;2023-08-06T05:58:14;14.30;99.90
18281;DHT22;9266;51.132;17.062;2023-08-06T06:00:41;14.30;99.90
18281;DHT22;9266;51.132;17.062;2023-08-06T06:03:08;14.30;99.90
18281;DHT22;9266;51.132;17.062;2023-08-06T06:05:37;14.30;99.90
18281;DHT22;9266;51.132;17.062;2023-08-06T06:08:04;14.30;99.90
18281;DHT22;9266;51.132;17.062;2023-08-06T06:10:31;14.30;99.90
18281;DHT22;9266;51.132;17.062;2023-08-06T06:12:59;14.30;99.90
18281;DHT22;9266;51.132;17.062;2023-08-06T06:15:26;14.30;99.90
18281;DHT22;9266;51.132;17.062;2023-08-06T06:17:53;14.30;99.90
18281;DHT22;9266;51.132;17.062;2023-08-06T06:20:20;14.30;99.90
18281;DHT22;9266;51.132;17.062;2023-08-06T06:22:47;14.30;99.90
18281;DHT22;9266;51.132;17.062;2023-08-06T06:25:14;14.30;99.90
18281;DHT22;9266;51.132;17.062;2023-08-06T06:27:41;14.30;99.90
18281;DHT22;9266;51.132;17.062;2023-08-06T06:30:10;14.30;99.90
18281;DHT22;9266;51.132;17.062;2023-08-06T06:32:38;14.30;99.90
18281;DHT22;9266;51.132;17.062;2023-08-06T06:35:07;14.30;99.90
18281;DHT22;9266;51.132;17.062;2023-08-06T06:37:34;14.30;99.90
18281;DHT22;9266;51.132;17.062;2023-08-06T06:40:01;14.30;99.90
18281;DHT22;9266;51.132;17.062;2023-08-06T06:42:29;14.30;99.90
18281;DHT22;9266;51.132;17.062;2023-08-06T06:44:56;15.20;99.90
18281;DHT22;9266;51.132;17.062;2023-08-06T06:47:24;14.30;99.90
18281;DHT22;9266;51.132;17.062;2023-08-06T06:49:51;14.30;99.90
18281;DHT22;9266;51.132;17.062;2023-08-06T06:52:18;14.40;99.90
18281;DHT22;9266;51.132;17.062;2023-08-06T06:54:45;14.30;99.90
18281;DHT22;9266;51.132;17.062;2023-08-06T06:57:12;14.40;99.90
18281;DHT22;9266;51.132;17.062;2023-08-06T06:59:39;14.40;99.90
18281;DHT22;9266;51.132;17.062;2023-08-06T07:02:06;14.40;99.90
18281;DHT22;9266;51.132;17.062;2023-08-06T07:04:34;14.40;99.90
18281;DHT22;9266;51.132;17.062;2023-08-06T07:07:01;14.40;99.90
18281;DHT22;9266;51.132;17.062;2023-08-06T07:09:28;14.50;99.90
18281;DHT22;9266;51.132;17.062;2023-08-06T07:11:55;14.40;99.90
18281;DHT22;9266;51.132;17.062;2023-08-06T07:14:22;14.40;99.90
18281;DHT22;9266;51.132;17.062;2023-08-06T07:16:49;14.50;99.90
18281;DHT22;9266;51.132;17.062;2023-08-06T07:19:16;14.50;99.90
18281;DHT22;9266;51.132;17.062;2023-08-06T07:21:45;14.50;99.90
18281;DHT22;9266;51.132;17.062;2023-08-06T07:24:12;14.50;99.90
18281;DHT22;9266;51.132;17.062;2023-08-06T07:26:38;14.50;99.90
18281;DHT22;9266;51.132;17.062;2023-08-06T07:29:05;14.50;99.90
18281;DHT22;9266;51.132;17.062;2023-08-06T07:31:32;14.50;99.90
18281;DHT22;9266;51.132;17.062;2023-08-06T07:33:59;14.50;99.90
18281;DHT22;9266;51.132;17.062;2023-08-06T07:36:26;14.60;99.90
18281;DHT22;9266;51.132;17.062;2023-08-06T07:38:55;14.60;99.90
18281;DHT22;9266;51.132;17.062;2023-08-06T07:41:22;14.60;99.90
18281;DHT22;9266;51.132;17.062;2023-08-06T07:43:49;14.60;99.90
18281;DHT22;9266;51.132;17.062;2023-08-06T07:46:16;14.60;99.90
18281;DHT22;9266;51.132;17.062;2023-08-06T07:48:43;14.60;99.90
18281;DHT22;9266;51.132;17.062;2023-08-06T07:51:10;14.60;99.90
18281;DHT22;9266;51.132;17.062;2023-08-06T07:53:37;14.60;99.90
18281;DHT22;9266;51.132;17.062;2023-08-06T07:56:05;14.60;99.90
18281;DHT22;9266;51.132;17.062;2023-08-06T07:58:32;14.60;99.90
18281;DHT22;9266;51.132;17.062;2023-08-06T08:00:59;14.60;99.90
18281;DHT22;9266;51.132;17.062;2023-08-06T08:03:26;14.60;99.90
18281;DHT22;9266;51.132;17.062;2023-08-06T08:05:55;14.60;99.90
18281;DHT22;9266;51.132;17.062;2023-08-06T08:08:24;14.50;99.90
18281;DHT22;9266;51.132;17.062;2023-08-06T08:10:51;14.50;99.90
18281;DHT22;9266;51.132;17.062;2023-08-06T08:13:19;14.60;99.90
18281;DHT22;9266;51.132;17.062;2023-08-06T08:15:46;14.60;99.90
18281;DHT22;9266;51.132;17.062;2023-08-06T08:18:13;14.60;99.90
18281;DHT22;9266;51.132;17.062;2023-08-06T08:20:40;14.70;99.90
18281;DHT22;9266;51.132;17.062;2023-08-06T08:23:07;14.60;99.90
18281;DHT22;9266;51.132;17.062;2023-08-06T08:25:34;14.60;99.90
18281;DHT22;9266;51.132;17.062;2023-08-06T08:28:01;14.60;99.90
18281;DHT22;9266;51.132;17.062;2023-08-06T08:30:29;14.70;99.90
18281;DHT22;9266;51.132;17.062;2023-08-06T08:32:56;14.70;99.90
18281;DHT22;9266;51.132;17.062;2023-08-06T08:35:23;14.70;99.90
18281;DHT22;9266;51.132;17.062;2023-08-06T08:37:50;14.70;99.90
18281;DHT22;9266;51.132;17.062;2023-08-06T08:40:17;14.70;99.90
18281;DHT22;9266;51.132;17.062;2023-08-06T08:42:44;14.80;99.90
18281;DHT22;9266;51.132;17.062;2023-08-06T08:45:13;14.80;99.90
18281;DHT22;9266;51.132;17.062;2023-08-06T08:47:42;14.80;99.90
18281;DHT22;9266;51.132;17.062;2023-08-06T08:50:10;14.80;99.90
18281;DHT22;9266;51.132;17.062;2023-08-06T08:52:38;14.80;99.90
18281;DHT22;9266;51.132;17.062;2023-08-06T08:55:07;14.80;99.90
18281;DHT22;9266;51.132;17.062;2023-08-06T08:57:34;14.90;99.90
18281;DHT22;9266;51.132;17.062;2023-08-06T09:00:02;14.90;99.90
18281;DHT22;9266;51.132;17.062;2023-08-06T09:02:29;14.90;99.90
18281;DHT22;9266;51.132;17.062;2023-08-06T09:05:00;14.90;99.90
18281;DHT22;9266;51.132;17.062;2023-08-06T09:07:31;14.90;99.90
18281;DHT22;9266;51.132;17.062;2023-08-06T09:10:02;14.90;99.90
18281;DHT22;9266;51.132;17.062;2023-08-06T09:12:31;14.90;99.90
18281;DHT22;9266;51.132;17.062;2023-08-06T09:14:58;15.00;99.90
18281;DHT22;9266;51.132;17.062;2023-08-06T09:17:25;14.90;99.90
18281;DHT22;9266;51.132;17.062;2023-08-06T09:19:54;14.90;99.90
18281;DHT22;9266;51.132;17.062;2023-08-06T09:22:22;14.90;99.90
18281;DHT22;9266;51.132;17.062;2023-08-06T09:24:49;14.90;99.90
18281;DHT22;9266;51.132;17.062;2023-08-06T09:27:16;14.90;99.90
18281;DHT22;9266;51.132;17.062;2023-08-06T09:29:44;14.90;99.90
18281;DHT22;9266;51.132;17.062;2023-08-06T09:32:12;14.80;99.90
18281;DHT22;9266;51.132;17.062;2023-08-06T09:34:39;14.80;99.90
18281;DHT22;9266;51.132;17.062;2023-08-06T09:37:08;14.80;99.90
18281;DHT22;9266;51.132;17.062;2023-08-06T09:39:39;14.80;99.90
18281;DHT22;9266;51.132;17.062;2023-08-06T09:42:06;14.80;99.90
18281;DHT22;9266;51.132;17.062;2023-08-06T09:44:34;14.90;99.90
18281;DHT22;9266;51.132;17.062;2023-08-06T09:47:02;14.90;99.90
18281;DHT22;9266;51.132;17.062;2023-08-06T09:49:41;14.90;99.90
18281;DHT22;9266;51.132;17.062;2023-08-06T09:52:12;14.90;99.90
18281;DHT22;9266;51.132;17.062;2023-08-06T09:54:40;14.90;99.90
18281;DHT22;9266;51.132;17.062;2023-08-06T09:57:10;14.90;99.90
18281;DHT22;9266;51.132;17.062;2023-08-06T09:59:39;14.90;99.90
18281;DHT22;9266;51.132;17.062;2023-08-06T10:02:12;14.90;99.90
18281;DHT22;9266;51.132;17.062;2023-08-06T10:04:41;14.90;99.90
18281;DHT22;9266;51.132;17.062;2023-08-06T10:07:08;14.80;99.90
18281;DHT22;9266;51.132;17.062;2023-08-06T10:09:35;14.80;99.90
18281;DHT22;9266;51.132;17.062;2023-08-06T10:12:04;14.90;99.90
18281;DHT22;9266;51.132;17.062;2023-08-06T10:14:34;14.90;99.90
18281;DHT22;9266;51.132;17.062;2023-08-06T10:17:02;14.80;99.90
18281;DHT22;9266;51.132;17.062;2023-08-06T10:19:29;14.80;99.90
18281;DHT22;9266;51.132;17.062;2023-08-06T10:22:11;14.80;99.90
18281;DHT22;9266;51.132;17.062;2023-08-06T10:24:48;14.80;99.90
18281;DHT22;9266;51.132;17.062;2023-08-06T10:27:21;14.90;99.90
18281;DHT22;9266;51.132;17.062;2023-08-06T10:29:49;14.90;99.90
18281;DHT22;9266;51.132;17.062;2023-08-06T10:32:16;14.90;99.90
18281;DHT22;9266;51.132;17.062;2023-08-06T10:34:55;14.90;99.90
18281;DHT22;9266;51.132;17.062;2023-08-06T10:37:23;14.90;99.90
18281;DHT22;9266;51.132;17.062;2023-08-06T10:39:50;14.90;99.90
18281;DHT22;9266;51.132;17.062;2023-08-06T10:42:27;15.00;99.90
18281;DHT22;9266;51.132;17.062;2023-08-06T10:45:14;15.00;99.90
18281;DHT22;9266;51.132;17.062;2023-08-06T10:47:42;15.00;99.90
18281;DHT22;9266;51.132;17.062;2023-08-06T10:50:11;15.00;99.90
18281;DHT22;9266;51.132;17.062;2023-08-06T10:52:38;15.00;99.90
18281;DHT22;9266;51.132;17.062;2023-08-06T10:55:06;15.00;99.90
18281;DHT22;9266;51.132;17.062;2023-08-06T10:57:35;15.00;99.90
18281;DHT22;9266;51.132;17.062;2023-08-06T11:00:04;14.60;99.90
18281;DHT22;9266;51.132;17.062;2023-08-06T11:02:33;15.00;99.90
18281;DHT22;9266;51.132;17.062;2023-08-06T11:05:05;15.00;99.90
18281;DHT22;9266;51.132;17.062;2023-08-06T11:07:33;15.10;99.90
18281;DHT22;9266;51.132;17.062;2023-08-06T11:10:04;15.20;99.90
18281;DHT22;9266;51.132;17.062;2023-08-06T11:12:31;15.20;99.90
18281;DHT22;9266;51.132;17.062;2023-08-06T11:14:59;15.30;99.90
18281;DHT22;9266;51.132;17.062;2023-08-06T11:17:28;15.30;99.90
18281;DHT22;9266;51.132;17.062;2023-08-06T11:19:55;15.20;99.90
18281;DHT22;9266;51.132;17.062;2023-08-06T11:22:22;14.50;99.90
18281;DHT22;9266;51.132;17.062;2023-08-06T11:24:49;15.30;99.90
18281;DHT22;9266;51.132;17.062;2023-08-06T11:27:17;15.30;99.90
18281;DHT22;9266;51.132;17.062;2023-08-06T11:29:44;15.30;99.90
18281;DHT22;9266;51.132;17.062;2023-08-06T11:32:13;15.40;99.90
18281;DHT22;9266;51.132;17.062;2023-08-06T11:34:40;15.30;99.90
18281;DHT22;9266;51.132;17.062;2023-08-06T11:37:07;15.40;99.90
18281;DHT22;9266;51.132;17.062;2023-08-06T11:39:36;15.30;99.90
18281;DHT22;9266;51.132;17.062;2023-08-06T11:42:04;15.40;99.90
18281;DHT22;9266;51.132;17.062;2023-08-06T11:44:33;15.40;99.90
18281;DHT22;9266;51.132;17.062;2023-08-06T11:47:02;15.40;99.90
18281;DHT22;9266;51.132;17.062;2023-08-06T11:49:43;15.40;99.90
18281;DHT22;9266;51.132;17.062;2023-08-06T11:52:13;15.40;99.90
18281;DHT22;9266;51.132;17.062;2023-08-06T11:54:40;15.40;99.90
18281;DHT22;9266;51.132;17.062;2023-08-06T11:57:08;15.50;99.90
18281;DHT22;9266;51.132;17.062;2023-08-06T11:59:35;15.40;99.90
18281;DHT22;9266;51.132;17.062;2023-08-06T12:02:03;15.40;99.90
18281;DHT22;9266;51.132;17.062;2023-08-06T12:04:32;15.50;99.90
18281;DHT22;9266;51.132;17.062;2023-08-06T12:07:06;15.40;99.90
18281;DHT22;9266;51.132;17.062;2023-08-06T12:09:34;15.40;99.90
18281;DHT22;9266;51.132;17.062;2023-08-06T12:12:02;15.40;99.90
18281;DHT22;9266;51.132;17.062;2023-08-06T12:14:30;15.30;99.90
18281;DHT22;9266;51.132;17.062;2023-08-06T12:16:57;15.30;99.90
18281;DHT22;9266;51.132;17.062;2023-08-06T12:19:23;15.30;99.90
18281;DHT22;9266;51.132;17.062;2023-08-06T12:21:51;15.20;99.90
18281;DHT22;9266;51.132;17.062;2023-08-06T12:24:20;15.30;99.90
18281;DHT22;9266;51.132;17.062;2023-08-06T12:26:47;15.30;99.90
18281;DHT22;9266;51.132;17.062;2023-08-06T12:29:13;15.30;99.90
18281;DHT22;9266;51.132;17.062;2023-08-06T12:31:40;15.30;99.90
18281;DHT22;9266;51.132;17.062;2023-08-06T12:34:07;15.40;99.90
18281;DHT22;9266;51.132;17.062;2023-08-06T12:36:34;15.40;99.90
18281;DHT22;9266;51.132;17.062;2023-08-06T12:39:04;15.40;99.90
18281;DHT22;9266;51.132;17.062;2023-08-06T12:41:32;15.40;99.90
18281;DHT22;9266;51.132;17.062;2023-08-06T12:43:59;15.40;99.90
18281;DHT22;9266;51.132;17.062;2023-08-06T12:46:26;15.40;99.90
18281;DHT22;9266;51.132;17.062;2023-08-06T12:48:53;15.40;99.90
18281;DHT22;9266;51.132;17.062;2023-08-06T12:51:20;15.40;99.90
18281;DHT22;9266;51.132;17.062;2023-08-06T12:53:47;15.40;99.90
18281;DHT22;9266;51.132;17.062;2023-08-06T12:56:14;15.40;99.90
18281;DHT22;9266;51.132;17.062;2023-08-06T12:58:42;15.40;99.90
18281;DHT22;9266;51.132;17.062;2023-08-06T13:01:10;15.40;99.90
18281;DHT22;9266;51.132;17.062;2023-08-06T13:03:37;15.40;99.90
18281;DHT22;9266;51.132;17.062;2023-08-06T13:06:03;15.40;99.90
18281;DHT22;9266;51.132;17.062;2023-08-06T13:08:31;15.40;99.90
18281;DHT22;9266;51.132;17.062;2023-08-06T13:10:58;15.50;99.90
18281;DHT22;9266;51.132;17.062;2023-08-06T13:13:25;15.50;99.90
18281;DHT22;9266;51.132;17.062;2023-08-06T13:15:54;15.40;99.90
18281;DHT22;9266;51.132;17.062;2023-08-06T13:18:20;15.40;99.90
18281;DHT22;9266;51.132;17.062;2023-08-06T13:20:47;15.50;99.90
18281;DHT22;9266;51.132;17.062;2023-08-06T13:23:18;15.40;99.90
18281;DHT22;9266;51.132;17.062;2023-08-06T13:25:45;14.90;99.90
18281;DHT22;9266;51.132;17.062;2023-08-06T13:28:12;15.50;99.90
18281;DHT22;9266;51.132;17.062;2023-08-06T13:30:39;15.50;99.90
18281;DHT22;9266;51.132;17.062;2023-08-06T13:33:09;15.60;99.90
18281;DHT22;9266;51.132;17.062;2023-08-06T13:35:36;15.50;99.90
18281;DHT22;9266;51.132;17.062;2023-08-06T13:38:03;15.60;99.90
18281;DHT22;9266;51.132;17.062;2023-08-06T13:40:31;15.60;99.90
18281;DHT22;9266;51.132;17.062;2023-08-06T13:42:58;15.50;99.90
18281;DHT22;9266;51.132;17.062;2023-08-06T13:45:26;15.50;99.90
18281;DHT22;9266;51.132;17.062;2023-08-06T13:47:53;15.50;99.90
18281;DHT22;9266;51.132;17.062;2023-08-06T13:50:22;15.60;99.90
18281;DHT22;9266;51.132;17.062;2023-08-06T13:52:51;15.50;99.90
18281;DHT22;9266;51.132;17.062;2023-08-06T13:55:21;15.50;99.90
18281;DHT22;9266;51.132;17.062;2023-08-06T13:57:48;15.60;99.90
18281;DHT22;9266;51.132;17.062;2023-08-06T14:00:15;15.60;99.90
18281;DHT22;9266;51.132;17.062;2023-08-06T14:02:42;15.50;99.90
18281;DHT22;9266;51.132;17.062;2023-08-06T14:05:10;15.60;99.90
18281;DHT22;9266;51.132;17.062;2023-08-06T14:07:39;15.50;99.90
18281;DHT22;9266;51.132;17.062;2023-08-06T14:10:07;15.50;99.90
18281;DHT22;9266;51.132;17.062;2023-08-06T14:12:34;15.50;99.90
18281;DHT22;9266;51.132;17.062;2023-08-06T14:15:02;15.50;99.90
18281;DHT22;9266;51.132;17.062;2023-08-06T14:17:29;15.40;99.90
18281;DHT22;9266;51.132;17.062;2023-08-06T14:19:56;15.40;99.90
18281;DHT22;9266;51.132;17.062;2023-08-06T14:22:23;15.40;99.90
18281;DHT22;9266;51.132;17.062;2023-08-06T14:24:52;15.40;99.90
18281;DHT22;9266;51.132;17.062;2023-08-06T14:27:19;15.40;99.90
18281;DHT22;9266;51.132;17.062;2023-08-06T14:29:45;15.40;99.90
18281;DHT22;9266;51.132;17.062;2023-08-06T14:32:12;15.50;99.90
18281;DHT22;9266;51.132;17.062;2023-08-06T14:34:43;15.60;99.90
18281;DHT22;9266;51.132;17.062;2023-08-06T14:37:10;15.60;99.90
18281;DHT22;9266;51.132;17.062;2023-08-06T14:39:37;15.70;99.90
18281;DHT22;9266;51.132;17.062;2023-08-06T14:42:06;15.80;99.90
18281;DHT22;9266;51.132;17.062;2023-08-06T14:44:33;15.80;99.90
18281;DHT22;9266;51.132;17.062;2023-08-06T14:47:00;15.80;99.90
18281;DHT22;9266;51.132;17.062;2023-08-06T14:49:27;15.80;99.90
18281;DHT22;9266;51.132;17.062;2023-08-06T14:51:54;15.80;99.90
18281;DHT22;9266;51.132;17.062;2023-08-06T14:54:24;15.90;99.90
18281;DHT22;9266;51.132;17.062;2023-08-06T14:56:52;16.00;99.90
18281;DHT22;9266;51.132;17.062;2023-08-06T14:59:20;16.00;99.90
18281;DHT22;9266;51.132;17.062;2023-08-06T15:01:47;16.00;99.90
18281;DHT22;9266;51.132;17.062;2023-08-06T15:04:14;16.00;99.90
18281;DHT22;9266;51.132;17.062;2023-08-06T15:06:41;16.00;99.90
18281;DHT22;9266;51.132;17.062;2023-08-06T15:09:08;16.00;99.90
18281;DHT22;9266;51.132;17.062;2023-08-06T15:11:35;16.20;99.90
18281;DHT22;9266;51.132;17.062;2023-08-06T15:14:02;16.10;99.90
18281;DHT22;9266;51.132;17.062;2023-08-06T15:16:32;16.20;99.90
18281;DHT22;9266;51.132;17.062;2023-08-06T15:18:59;16.20;99.90
18281;DHT22;9266;51.132;17.062;2023-08-06T15:21:27;16.30;99.90
18281;DHT22;9266;51.132;17.062;2023-08-06T15:23:54;16.20;99.90
18281;DHT22;9266;51.132;17.062;2023-08-06T15:26:21;16.00;99.90
18281;DHT22;9266;51.132;17.062;2023-08-06T15:28:47;16.00;99.90
18281;DHT22;9266;51.132;17.062;2023-08-06T15:31:14;15.90;99.90
18281;DHT22;9266;51.132;17.062;2023-08-06T15:33:43;15.70;99.90